sensor_id;sensor_type;location;lat;lon;timestamp;P1;durP1;ratioP1;P2;durP2;ratioP2
6288;SDS011;3177;49.880;8.836;2023-04-25T00:01:00;3.87;;;3.57;;
6288;SDS011;3177;49.880;8.836;2023-04-25T00:03:28;3.10;;;2.90;;
6288;SDS011;3177;49.880;8.836;2023-04-25T00:05:57;4.00;;;3.40;;
6288;SDS011;3177;49.880;8.836;2023-04-25T00:08:26;4.07;;;3.60;;
6288;SDS011;3177;49.880;8.836;2023-04-25T00:10:53;3.60;;;3.30;;
6288;SDS011;3177;49.880;8.836;2023-04-25T00:13:21;3.50;;;3.20;;
6288;SDS011;3177;49.880;8.836;2023-04-25T00:15:48;3.97;;;3.50;;
6288;SDS011;3177;49.880;8.836;2023-04-25T00:18:15;4.23;;;3.83;;
6288;SDS011;3177;49.880;8.836;2023-04-25T00:20:42;4.07;;;3.77;;
6288;SDS011;3177;49.880;8.836;2023-04-25T00:23:13;4.00;;;3.70;;
6288;SDS011;3177;49.880;8.836;2023-04-25T00:25:42;8.43;;;3.97;;
6288;SDS011;3177;49.880;8.836;2023-04-25T00:28:10;4.03;;;3.63;;
6288;SDS011;3177;49.880;8.836;2023-04-25T00:30:37;4.60;;;4.03;;
6288;SDS011;3177;49.880;8.836;2023-04-25T00:33:04;4.53;;;4.13;;
6288;SDS011;3177;49.880;8.836;2023-04-25T00:35:31;5.97;;;4.13;;
6288;SDS011;3177;49.880;8.836;2023-04-25T00:37:58;5.40;;;4.03;;
6288;SDS011;3177;49.880;8.836;2023-04-25T00:40:26;4.37;;;4.00;;
6288;SDS011;3177;49.880;8.836;2023-04-25T00:42:54;6.37;;;4.50;;
6288;SDS011;3177;49.880;8.836;2023-04-25T00:45:21;5.10;;;4.60;;
6288;SDS011;3177;49.880;8.836;2023-04-25T00:47:48;5.10;;;4.60;;
6288;SDS011;3177;49.880;8.836;2023-04-25T00:50:15;4.83;;;4.40;;
6288;SDS011;3177;49.880;8.836;2023-04-25T00:52:43;5.20;;;4.70;;
6288;SDS011;3177;49.880;8.836;2023-04-25T00:55:11;5.40;;;4.90;;
6288;SDS011;3177;49.880;8.836;2023-04-25T00:57:40;5.03;;;4.57;;
6288;SDS011;3177;49.880;8.836;2023-04-25T01:00:07;5.83;;;4.60;;
6288;SDS011;3177;49.880;8.836;2023-04-25T01:02:36;5.33;;;4.47;;
6288;SDS011;3177;49.880;8.836;2023-04-25T01:05:03;6.77;;;5.00;;
6288;SDS011;3177;49.880;8.836;2023-04-25T01:07:30;6.00;;;5.50;;
6288;SDS011;3177;49.880;8.836;2023-04-25T01:09:57;5.53;;;4.60;;
6288;SDS011;3177;49.880;8.836;2023-04-25T01:12:24;5.13;;;4.67;;
6288;SDS011;3177;49.880;8.836;2023-04-25T01:14:53;5.17;;;4.67;;
6288;SDS011;3177;49.880;8.836;2023-04-25T01:17:20;14.50;;;5.63;;
6288;SDS011;3177;49.880;8.836;2023-04-25T01:19:47;6.20;;;5.00;;
6288;SDS011;3177;49.880;8.836;2023-04-25T01:22:17;5.30;;;4.80;;
6288;SDS011;3177;49.880;8.836;2023-04-25T01:24:45;7.70;;;5.60;;
6288;SDS011;3177;49.880;8.836;2023-04-25T01:27:12;7.03;;;5.43;;
6288;SDS011;3177;49.880;8.836;2023-04-25T01:29:40;6.23;;;5.57;;
6288;SDS011;3177;49.880;8.836;2023-04-25T01:32:07;6.60;;;5.80;;
6288;SDS011;3177;49.880;8.836;2023-04-25T01:34:34;6.00;;;5.30;;
6288;SDS011;3177;49.880;8.836;2023-04-25T01:37:01;5.70;;;5.20;;
6288;SDS011;3177;49.880;8.836;2023-04-25T01:39:30;6.27;;;5.60;;
6288;SDS011;3177;49.880;8.836;2023-04-25T01:41:58;5.83;;;5.07;;
6288;SDS011;3177;49.880;8.836;2023-04-25T01:44:25;6.47;;;5.40;;
6288;SDS011;3177;49.880;8.836;2023-04-25T01:46:52;6.23;;;5.60;;
6288;SDS011;3177;49.880;8.836;2023-04-25T01:49:20;7.97;;;5.43;;
6288;SDS011;3177;49.880;8.836;2023-04-25T01:51:48;6.53;;;5.67;;
6288;SDS011;3177;49.880;8.836;2023-04-25T01:54:15;7.77;;;5.53;;
6288;SDS011;3177;49.880;8.836;2023-04-25T01:56:43;6.53;;;5.93;;
6288;SDS011;3177;49.880;8.836;2023-04-25T01:59:10;6.40;;;5.80;;
6288;SDS011;3177;49.880;8.836;2023-04-25T02:01:38;6.00;;;5.40;;
6288;SDS011;3177;49.880;8.836;2023-04-25T02:04:05;6.30;;;5.70;;
6288;SDS011;3177;49.880;8.836;2023-04-25T02:06:32;6.63;;;5.93;;
6288;SDS011;3177;49.880;8.836;2023-04-25T02:08:59;5.83;;;5.27;;
6288;SDS011;3177;49.880;8.836;2023-04-25T02:11:26;6.40;;;5.70;;
6288;SDS011;3177;49.880;8.836;2023-04-25T02:13:54;6.63;;;5.47;;
6288;SDS011;3177;49.880;8.836;2023-04-25T02:16:21;6.43;;;5.80;;
6288;SDS011;3177;49.880;8.836;2023-04-25T02:18:50;6.77;;;5.90;;
6288;SDS011;3177;49.880;8.836;2023-04-25T02:21:17;6.30;;;5.70;;
6288;SDS011;3177;49.880;8.836;2023-04-25T02:23:45;6.40;;;5.80;;
6288;SDS011;3177;49.880;8.836;2023-04-25T02:26:13;6.37;;;5.73;;
6288;SDS011;3177;49.880;8.836;2023-04-25T02:28:40;6.83;;;5.90;;
6288;SDS011;3177;49.880;8.836;2023-04-25T02:31:09;7.17;;;6.47;;
6288;SDS011;3177;49.880;8.836;2023-04-25T02:33:36;7.10;;;6.40;;
6288;SDS011;3177;49.880;8.836;2023-04-25T02:36:03;6.13;;;5.53;;
6288;SDS011;3177;49.880;8.836;2023-04-25T02:38:30;6.67;;;5.80;;
6288;SDS011;3177;49.880;8.836;2023-04-25T02:40:58;7.27;;;5.90;;
6288;SDS011;3177;49.880;8.836;2023-04-25T02:43:25;9.13;;;5.93;;
6288;SDS011;3177;49.880;8.836;2023-04-25T02:45:52;6.97;;;6.03;;
6288;SDS011;3177;49.880;8.836;2023-04-25T02:48:20;7.00;;;6.30;;
6288;SDS011;3177;49.880;8.836;2023-04-25T02:50:47;6.63;;;5.90;;
6288;SDS011;3177;49.880;8.836;2023-04-25T02:53:15;6.73;;;6.10;;
6288;SDS011;3177;49.880;8.836;2023-04-25T02:55:42;7.03;;;5.70;;
6288;SDS011;3177;49.880;8.836;2023-04-25T02:58:11;8.73;;;6.03;;
6288;SDS011;3177;49.880;8.836;2023-04-25T03:00:38;7.40;;;6.60;;
6288;SDS011;3177;49.880;8.836;2023-04-25T03:03:05;7.53;;;6.53;;
6288;SDS011;3177;49.880;8.836;2023-04-25T03:05:33;6.97;;;6.27;;
6288;SDS011;3177;49.880;8.836;2023-04-25T03:08:00;7.20;;;6.47;;
6288;SDS011;3177;49.880;8.836;2023-04-25T03:10:27;6.57;;;5.90;;
6288;SDS011;3177;49.880;8.836;2023-04-25T03:12:55;7.17;;;6.37;;
6288;SDS011;3177;49.880;8.836;2023-04-25T03:15:22;6.70;;;6.07;;
6288;SDS011;3177;49.880;8.836;2023-04-25T03:17:49;8.33;;;6.70;;
6288;SDS011;3177;49.880;8.836;2023-04-25T03:20:16;6.77;;;6.17;;
6288;SDS011;3177;49.880;8.836;2023-04-25T03:22:44;6.37;;;5.73;;
6288;SDS011;3177;49.880;8.836;2023-04-25T03:25:11;7.80;;;7.00;;
6288;SDS011;3177;49.880;8.836;2023-04-25T03:27:38;8.20;;;6.90;;
6288;SDS011;3177;49.880;8.836;2023-04-25T03:30:06;7.87;;;7.07;;
6288;SDS011;3177;49.880;8.836;2023-04-25T03:32:33;7.90;;;6.70;;
6288;SDS011;3177;49.880;8.836;2023-04-25T03:35:00;7.53;;;6.70;;
6288;SDS011;3177;49.880;8.836;2023-04-25T03:37:28;7.37;;;6.67;;
6288;SDS011;3177;49.880;8.836;2023-04-25T03:39:56;7.97;;;6.37;;
6288;SDS011;3177;49.880;8.836;2023-04-25T03:42:23;7.03;;;6.33;;
6288;SDS011;3177;49.880;8.836;2023-04-25T03:44:51;7.70;;;7.00;;
6288;SDS011;3177;49.880;8.836;2023-04-25T03:47:18;8.43;;;7.27;;
6288;SDS011;3177;49.880;8.836;2023-04-25T03:49:45;8.40;;;6.90;;
6288;SDS011;3177;49.880;8.836;2023-04-25T03:52:14;8.10;;;7.20;;
6288;SDS011;3177;49.880;8.836;2023-04-25T03:54:41;7.60;;;6.80;;
6288;SDS011;3177;49.880;8.836;2023-04-25T03:57:09;7.37;;;6.57;;
6288;SDS011;3177;49.880;8.836;2023-04-25T03:59:36;9.37;;;7.47;;
6288;SDS011;3177;49.880;8.836;2023-04-25T04:02:03;10.13;;;7.63;;
6288;SDS011;3177;49.880;8.836;2023-04-25T04:04:30;7.73;;;6.80;;
6288;SDS011;3177;49.880;8.836;2023-04-25T04:06:57;8.67;;;7.70;;
6288;SDS011;3177;49.880;8.836;2023-04-25T04:09:25;10.97;;;8.27;;
6288;SDS011;3177;49.880;8.836;2023-04-25T04:11:52;8.57;;;7.40;;
6288;SDS011;3177;49.880;8.836;2023-04-25T04:14:21;9.47;;;7.80;;
6288;SDS011;3177;49.880;8.836;2023-04-25T04:16:48;8.97;;;7.73;;
6288;SDS011;3177;49.880;8.836;2023-04-25T04:19:15;9.20;;;8.17;;
6288;SDS011;3177;49.880;8.836;2023-04-25T04:21:42;9.27;;;8.20;;
6288;SDS011;3177;49.880;8.836;2023-04-25T04:24:09;10.87;;;8.60;;
6288;SDS011;3177;49.880;8.836;2023-04-25T04:26:36;10.30;;;8.23;;
6288;SDS011;3177;49.880;8.836;2023-04-25T04:29:03;10.17;;;8.37;;
6288;SDS011;3177;49.880;8.836;2023-04-25T04:31:35;10.73;;;8.40;;
6288;SDS011;3177;49.880;8.836;2023-04-25T04:34:02;10.80;;;9.70;;
6288;SDS011;3177;49.880;8.836;2023-04-25T04:36:29;13.10;;;9.00;;
6288;SDS011;3177;49.880;8.836;2023-04-25T04:38:56;11.93;;;7.93;;
6288;SDS011;3177;49.880;8.836;2023-04-25T04:41:23;12.77;;;8.23;;
6288;SDS011;3177;49.880;8.836;2023-04-25T04:43:51;8.53;;;7.23;;
6288;SDS011;3177;49.880;8.836;2023-04-25T04:46:18;8.60;;;6.73;;
6288;SDS011;3177;49.880;8.836;2023-04-25T04:48:46;8.30;;;6.47;;
6288;SDS011;3177;49.880;8.836;2023-04-25T04:51:13;10.37;;;6.70;;
6288;SDS011;3177;49.880;8.836;2023-04-25T04:53:40;8.53;;;6.30;;
6288;SDS011;3177;49.880;8.836;2023-04-25T04:56:07;7.53;;;6.43;;
6288;SDS011;3177;49.880;8.836;2023-04-25T04:58:34;12.03;;;7.20;;
6288;SDS011;3177;49.880;8.836;2023-04-25T05:01:01;8.60;;;6.80;;
6288;SDS011;3177;49.880;8.836;2023-04-25T05:03:28;9.77;;;5.63;;
6288;SDS011;3177;49.880;8.836;2023-04-25T05:05:57;10.07;;;6.97;;
6288;SDS011;3177;49.880;8.836;2023-04-25T05:08:24;9.83;;;6.30;;
6288;SDS011;3177;49.880;8.836;2023-04-25T05:10:51;9.23;;;6.97;;
6288;SDS011;3177;49.880;8.836;2023-04-25T05:13:18;9.93;;;6.70;;
6288;SDS011;3177;49.880;8.836;2023-04-25T05:15:45;9.93;;;7.70;;
6288;SDS011;3177;49.880;8.836;2023-04-25T05:18:12;8.77;;;7.03;;
6288;SDS011;3177;49.880;8.836;2023-04-25T05:20:39;11.73;;;8.00;;
6288;SDS011;3177;49.880;8.836;2023-04-25T05:23:08;9.93;;;7.60;;
6288;SDS011;3177;49.880;8.836;2023-04-25T05:25:35;9.43;;;6.83;;
6288;SDS011;3177;49.880;8.836;2023-04-25T05:28:02;7.53;;;6.70;;
6288;SDS011;3177;49.880;8.836;2023-04-25T05:30:30;8.17;;;6.33;;
6288;SDS011;3177;49.880;8.836;2023-04-25T05:32:57;11.17;;;6.43;;
6288;SDS011;3177;49.880;8.836;2023-04-25T05:35:24;10.17;;;7.17;;
6288;SDS011;3177;49.880;8.836;2023-04-25T05:37:51;8.23;;;6.50;;
6288;SDS011;3177;49.880;8.836;2023-04-25T05:40:19;9.10;;;6.73;;
6288;SDS011;3177;49.880;8.836;2023-04-25T05:42:46;12.47;;;6.53;;
6288;SDS011;3177;49.880;8.836;2023-04-25T05:45:13;11.60;;;7.03;;
6288;SDS011;3177;49.880;8.836;2023-04-25T05:47:42;11.30;;;6.70;;
6288;SDS011;3177;49.880;8.836;2023-04-25T05:50:09;9.23;;;7.23;;
6288;SDS011;3177;49.880;8.836;2023-04-25T05:52:36;10.10;;;7.03;;
6288;SDS011;3177;49.880;8.836;2023-04-25T05:55:04;11.90;;;7.03;;
6288;SDS011;3177;49.880;8.836;2023-04-25T05:57:32;14.87;;;7.73;;
6288;SDS011;3177;49.880;8.836;2023-04-25T06:00:00;10.73;;;7.07;;
6288;SDS011;3177;49.880;8.836;2023-04-25T06:02:28;10.70;;;7.00;;
6288;SDS011;3177;49.880;8.836;2023-04-25T06:04:55;10.37;;;7.57;;
6288;SDS011;3177;49.880;8.836;2023-04-25T06:07:22;14.93;;;8.23;;
6288;SDS011;3177;49.880;8.836;2023-04-25T06:09:49;14.20;;;7.00;;
6288;SDS011;3177;49.880;8.836;2023-04-25T06:12:16;13.67;;;6.63;;
6288;SDS011;3177;49.880;8.836;2023-04-25T06:14:44;11.63;;;6.87;;
6288;SDS011;3177;49.880;8.836;2023-04-25T06:17:12;16.27;;;7.30;;
6288;SDS011;3177;49.880;8.836;2023-04-25T06:19:39;8.27;;;6.30;;
6288;SDS011;3177;49.880;8.836;2023-04-25T06:22:06;11.13;;;6.60;;
6288;SDS011;3177;49.880;8.836;2023-04-25T06:24:34;10.93;;;6.87;;
6288;SDS011;3177;49.880;8.836;2023-04-25T06:27:01;13.33;;;7.07;;
6288;SDS011;3177;49.880;8.836;2023-04-25T06:29:28;14.50;;;6.70;;
6288;SDS011;3177;49.880;8.836;2023-04-25T06:31:56;10.20;;;6.73;;
6288;SDS011;3177;49.880;8.836;2023-04-25T06:34:23;9.00;;;6.63;;
6288;SDS011;3177;49.880;8.836;2023-04-25T06:36:57;13.60;;;7.00;;
6288;SDS011;3177;49.880;8.836;2023-04-25T06:39:25;10.80;;;6.43;;
6288;SDS011;3177;49.880;8.836;2023-04-25T06:41:52;13.13;;;6.50;;
6288;SDS011;3177;49.880;8.836;2023-04-25T06:44:19;10.30;;;6.70;;
6288;SDS011;3177;49.880;8.836;2023-04-25T06:46:48;12.67;;;6.20;;
6288;SDS011;3177;49.880;8.836;2023-04-25T06:49:16;8.30;;;5.53;;
6288;SDS011;3177;49.880;8.836;2023-04-25T06:51:43;10.73;;;6.37;;
6288;SDS011;3177;49.880;8.836;2023-04-25T06:54:10;14.43;;;6.57;;
6288;SDS011;3177;49.880;8.836;2023-04-25T06:56:37;10.17;;;6.20;;
6288;SDS011;3177;49.880;8.836;2023-04-25T06:59:04;10.87;;;6.83;;
6288;SDS011;3177;49.880;8.836;2023-04-25T07:01:32;9.37;;;5.60;;
6288;SDS011;3177;49.880;8.836;2023-04-25T07:04:00;10.57;;;5.90;;
6288;SDS011;3177;49.880;8.836;2023-04-25T07:06:28;8.67;;;5.73;;
6288;SDS011;3177;49.880;8.836;2023-04-25T07:08:56;9.70;;;6.27;;
6288;SDS011;3177;49.880;8.836;2023-04-25T07:11:23;9.80;;;5.87;;
6288;SDS011;3177;49.880;8.836;2023-04-25T07:13:50;8.17;;;5.73;;
6288;SDS011;3177;49.880;8.836;2023-04-25T07:16:17;13.00;;;6.33;;
6288;SDS011;3177;49.880;8.836;2023-04-25T07:18:44;9.27;;;5.57;;
6288;SDS011;3177;49.880;8.836;2023-04-25T07:21:11;9.80;;;5.43;;
6288;SDS011;3177;49.880;8.836;2023-04-25T07:23:40;6.90;;;5.23;;
6288;SDS011;3177;49.880;8.836;2023-04-25T07:26:07;9.57;;;5.20;;
6288;SDS011;3177;49.880;8.836;2023-04-25T07:28:34;8.10;;;5.00;;
6288;SDS011;3177;49.880;8.836;2023-04-25T07:31:01;9.87;;;5.00;;
6288;SDS011;3177;49.880;8.836;2023-04-25T07:33:28;7.50;;;4.93;;
6288;SDS011;3177;49.880;8.836;2023-04-25T07:35:55;10.27;;;5.23;;
6288;SDS011;3177;49.880;8.836;2023-04-25T07:38:23;12.20;;;5.27;;
6288;SDS011;3177;49.880;8.836;2023-04-25T07:40:51;7.47;;;4.60;;
6288;SDS011;3177;49.880;8.836;2023-04-25T07:43:18;10.67;;;5.30;;
6288;SDS011;3177;49.880;8.836;2023-04-25T07:45:45;8.77;;;5.50;;
6288;SDS011;3177;49.880;8.836;2023-04-25T07:48:16;9.03;;;5.63;;
6288;SDS011;3177;49.880;8.836;2023-04-25T07:50:43;9.27;;;4.73;;
6288;SDS011;3177;49.880;8.836;2023-04-25T07:53:10;8.33;;;4.97;;
6288;SDS011;3177;49.880;8.836;2023-04-25T07:55:38;10.37;;;5.60;;
6288;SDS011;3177;49.880;8.836;2023-04-25T07:58:07;12.20;;;5.90;;
6288;SDS011;3177;49.880;8.836;2023-04-25T08:00:34;10.27;;;5.27;;
6288;SDS011;3177;49.880;8.836;2023-04-25T08:03:01;11.40;;;6.10;;
6288;SDS011;3177;49.880;8.836;2023-04-25T08:05:28;5.60;;;4.77;;
6288;SDS011;3177;49.880;8.836;2023-04-25T08:07:55;8.83;;;4.77;;
6288;SDS011;3177;49.880;8.836;2023-04-25T08:10:23;14.17;;;5.07;;
6288;SDS011;3177;49.880;8.836;2023-04-25T08:12:50;10.13;;;4.97;;
6288;SDS011;3177;49.880;8.836;2023-04-25T08:15:18;9.00;;;4.63;;
6288;SDS011;3177;49.880;8.836;2023-04-25T08:17:46;7.77;;;4.80;;
6288;SDS011;3177;49.880;8.836;2023-04-25T08:20:13;6.30;;;3.90;;
6288;SDS011;3177;49.880;8.836;2023-04-25T08:22:40;6.90;;;3.90;;
6288;SDS011;3177;49.880;8.836;2023-04-25T08:25:07;6.30;;;3.97;;
6288;SDS011;3177;49.880;8.836;2023-04-25T08:27:35;8.13;;;3.90;;
6288;SDS011;3177;49.880;8.836;2023-04-25T08:30:02;6.33;;;3.90;;
6288;SDS011;3177;49.880;8.836;2023-04-25T08:32:31;11.20;;;4.13;;
6288;SDS011;3177;49.880;8.836;2023-04-25T08:34:58;7.83;;;3.60;;
6288;SDS011;3177;49.880;8.836;2023-04-25T08:37:25;7.87;;;3.50;;
6288;SDS011;3177;49.880;8.836;2023-04-25T08:39:52;4.37;;;3.30;;
6288;SDS011;3177;49.880;8.836;2023-04-25T08:42:21;7.80;;;3.60;;
6288;SDS011;3177;49.880;8.836;2023-04-25T08:44:48;6.50;;;3.97;;
6288;SDS011;3177;49.880;8.836;2023-04-25T08:47:15;5.53;;;3.43;;
6288;SDS011;3177;49.880;8.836;2023-04-25T08:49:46;4.10;;;2.87;;
6288;SDS011;3177;49.880;8.836;2023-04-25T08:52:13;5.53;;;3.63;;
6288;SDS011;3177;49.880;8.836;2023-04-25T08:54:41;5.60;;;3.37;;
6288;SDS011;3177;49.880;8.836;2023-04-25T08:57:09;5.43;;;3.00;;
6288;SDS011;3177;49.880;8.836;2023-04-25T08:59:36;4.90;;;3.23;;
6288;SDS011;3177;49.880;8.836;2023-04-25T09:02:04;5.83;;;3.47;;
6288;SDS011;3177;49.880;8.836;2023-04-25T09:04:31;4.90;;;3.00;;
6288;SDS011;3177;49.880;8.836;2023-04-25T09:07:00;5.00;;;2.87;;
6288;SDS011;3177;49.880;8.836;2023-04-25T09:09:27;4.87;;;3.10;;
6288;SDS011;3177;49.880;8.836;2023-04-25T09:11:54;3.87;;;2.93;;
6288;SDS011;3177;49.880;8.836;2023-04-25T09:14:22;3.73;;;2.70;;
6288;SDS011;3177;49.880;8.836;2023-04-25T09:16:57;6.43;;;3.50;;
6288;SDS011;3177;49.880;8.836;2023-04-25T09:19:25;6.87;;;3.17;;
6288;SDS011;3177;49.880;8.836;2023-04-25T09:21:53;4.83;;;2.90;;
6288;SDS011;3177;49.880;8.836;2023-04-25T09:24:30;6.37;;;2.87;;
6288;SDS011;3177;49.880;8.836;2023-04-25T09:26:58;4.33;;;2.57;;
6288;SDS011;3177;49.880;8.836;2023-04-25T09:29:29;5.10;;;2.50;;
6288;SDS011;3177;49.880;8.836;2023-04-25T09:32:16;4.90;;;2.70;;
6288;SDS011;3177;49.880;8.836;2023-04-25T09:34:43;4.53;;;2.77;;
6288;SDS011;3177;49.880;8.836;2023-04-25T09:37:13;3.17;;;2.57;;
6288;SDS011;3177;49.880;8.836;2023-04-25T09:39:45;5.73;;;2.67;;
6288;SDS011;3177;49.880;8.836;2023-04-25T09:42:12;7.83;;;2.90;;
6288;SDS011;3177;49.880;8.836;2023-04-25T09:44:41;4.13;;;2.70;;
6288;SDS011;3177;49.880;8.836;2023-04-25T09:47:09;5.47;;;2.87;;
6288;SDS011;3177;49.880;8.836;2023-04-25T09:49:38;5.63;;;2.63;;
6288;SDS011;3177;49.880;8.836;2023-04-25T09:52:05;4.27;;;2.53;;
6288;SDS011;3177;49.880;8.836;2023-04-25T09:54:32;4.10;;;2.60;;
6288;SDS011;3177;49.880;8.836;2023-04-25T09:57:02;6.20;;;2.90;;
6288;SDS011;3177;49.880;8.836;2023-04-25T09:59:30;2.37;;;2.17;;
6288;SDS011;3177;49.880;8.836;2023-04-25T10:01:59;4.20;;;2.20;;
6288;SDS011;3177;49.880;8.836;2023-04-25T10:04:26;4.70;;;2.63;;
6288;SDS011;3177;49.880;8.836;2023-04-25T10:06:55;2.67;;;2.47;;
6288;SDS011;3177;49.880;8.836;2023-04-25T10:09:24;3.03;;;2.33;;
6288;SDS011;3177;49.880;8.836;2023-04-25T10:11:54;3.90;;;2.60;;
6288;SDS011;3177;49.880;8.836;2023-04-25T10:14:23;2.80;;;2.60;;
6288;SDS011;3177;49.880;8.836;2023-04-25T10:16:50;4.17;;;2.70;;
6288;SDS011;3177;49.880;8.836;2023-04-25T10:19:19;2.87;;;2.43;;
6288;SDS011;3177;49.880;8.836;2023-04-25T10:21:48;4.83;;;2.90;;
6288;SDS011;3177;49.880;8.836;2023-04-25T10:24:16;3.93;;;2.57;;
6288;SDS011;3177;49.880;8.836;2023-04-25T10:26:44;3.90;;;2.70;;
6288;SDS011;3177;49.880;8.836;2023-04-25T10:29:11;5.97;;;2.80;;
6288;SDS011;3177;49.880;8.836;2023-04-25T10:31:45;4.33;;;2.50;;
6288;SDS011;3177;49.880;8.836;2023-04-25T10:34:13;5.10;;;2.60;;
6288;SDS011;3177;49.880;8.836;2023-04-25T10:36:40;3.50;;;2.50;;
6288;SDS011;3177;49.880;8.836;2023-04-25T10:39:07;2.77;;;2.30;;
6288;SDS011;3177;49.880;8.836;2023-04-25T10:41:45;5.80;;;2.40;;
6288;SDS011;3177;49.880;8.836;2023-04-25T10:44:13;3.30;;;2.27;;
6288;SDS011;3177;49.880;8.836;2023-04-25T10:46:40;2.97;;;2.50;;
6288;SDS011;3177;49.880;8.836;2023-04-25T10:49:08;3.67;;;2.50;;
6288;SDS011;3177;49.880;8.836;2023-04-25T10:51:36;3.90;;;2.40;;
6288;SDS011;3177;49.880;8.836;2023-04-25T10:54:04;2.93;;;2.60;;
6288;SDS011;3177;49.880;8.836;2023-04-25T10:56:31;4.83;;;3.10;;
6288;SDS011;3177;49.880;8.836;2023-04-25T10:59:02;3.80;;;2.77;;
6288;SDS011;3177;49.880;8.836;2023-04-25T11:01:36;4.27;;;3.00;;
6288;SDS011;3177;49.880;8.836;2023-04-25T11:04:03;3.17;;;2.87;;
6288;SDS011;3177;49.880;8.836;2023-04-25T11:06:34;2.97;;;2.67;;
6288;SDS011;3177;49.880;8.836;2023-04-25T11:09:08;4.40;;;3.27;;
6288;SDS011;3177;49.880;8.836;2023-04-25T11:11:38;6.53;;;3.03;;
6288;SDS011;3177;49.880;8.836;2023-04-25T11:14:05;3.63;;;2.70;;
6288;SDS011;3177;49.880;8.836;2023-04-25T11:16:32;4.80;;;3.67;;
6288;SDS011;3177;49.880;8.836;2023-04-25T11:19:01;4.67;;;3.13;;
6288;SDS011;3177;49.880;8.836;2023-04-25T11:21:29;6.97;;;3.33;;
6288;SDS011;3177;49.880;8.836;2023-04-25T11:23:58;5.13;;;3.40;;
6288;SDS011;3177;49.880;8.836;2023-04-25T11:26:25;4.37;;;2.90;;
6288;SDS011;3177;49.880;8.836;2023-04-25T11:28:56;6.87;;;3.67;;
6288;SDS011;3177;49.880;8.836;2023-04-25T11:31:24;4.90;;;3.00;;
6288;SDS011;3177;49.880;8.836;2023-04-25T11:33:52;3.50;;;2.67;;
6288;SDS011;3177;49.880;8.836;2023-04-25T11:36:20;3.40;;;2.73;;
6288;SDS011;3177;49.880;8.836;2023-04-25T11:38:47;4.13;;;3.17;;
6288;SDS011;3177;49.880;8.836;2023-04-25T11:41:15;3.87;;;3.17;;
6288;SDS011;3177;49.880;8.836;2023-04-25T11:43:42;6.03;;;2.97;;
6288;SDS011;3177;49.880;8.836;2023-04-25T11:46:09;5.00;;;3.10;;
6288;SDS011;3177;49.880;8.836;2023-04-25T11:48:37;4.57;;;3.27;;
6288;SDS011;3177;49.880;8.836;2023-04-25T11:51:04;4.73;;;3.13;;
6288;SDS011;3177;49.880;8.836;2023-04-25T11:53:31;5.73;;;3.13;;
6288;SDS011;3177;49.880;8.836;2023-04-25T11:55:58;3.63;;;3.03;;
6288;SDS011;3177;49.880;8.836;2023-04-25T11:58:27;7.23;;;3.53;;
6288;SDS011;3177;49.880;8.836;2023-04-25T12:00:54;6.30;;;3.17;;
6288;SDS011;3177;49.880;8.836;2023-04-25T12:03:23;3.57;;;3.27;;
6288;SDS011;3177;49.880;8.836;2023-04-25T12:05:52;3.77;;;3.40;;
6288;SDS011;3177;49.880;8.836;2023-04-25T12:08:19;6.17;;;3.47;;
6288;SDS011;3177;49.880;8.836;2023-04-25T12:10:46;5.77;;;3.50;;
6288;SDS011;3177;49.880;8.836;2023-04-25T12:13:20;6.07;;;3.50;;
6288;SDS011;3177;49.880;8.836;2023-04-25T12:15:48;5.23;;;3.10;;
6288;SDS011;3177;49.880;8.836;2023-04-25T12:18:18;4.07;;;3.40;;
6288;SDS011;3177;49.880;8.836;2023-04-25T12:20:46;4.50;;;3.00;;
6288;SDS011;3177;49.880;8.836;2023-04-25T12:23:13;6.23;;;3.50;;
6288;SDS011;3177;49.880;8.836;2023-04-25T12:25:41;4.57;;;3.40;;
6288;SDS011;3177;49.880;8.836;2023-04-25T12:28:09;4.53;;;3.60;;
6288;SDS011;3177;49.880;8.836;2023-04-25T12:33:31;5.47;;;3.43;;
6288;SDS011;3177;49.880;8.836;2023-04-25T12:35:58;4.57;;;3.30;;
6288;SDS011;3177;49.880;8.836;2023-04-25T12:38:29;4.90;;;2.90;;
6288;SDS011;3177;49.880;8.836;2023-04-25T12:40:56;6.20;;;3.10;;
6288;SDS011;3177;49.880;8.836;2023-04-25T12:43:23;4.03;;;3.27;;
6288;SDS011;3177;49.880;8.836;2023-04-25T12:45:51;4.17;;;3.40;;
6288;SDS011;3177;49.880;8.836;2023-04-25T12:48:18;3.37;;;3.03;;
6288;SDS011;3177;49.880;8.836;2023-04-25T12:50:48;4.80;;;3.00;;
6288;SDS011;3177;49.880;8.836;2023-04-25T12:53:15;5.53;;;3.23;;
6288;SDS011;3177;49.880;8.836;2023-04-25T12:55:42;5.53;;;3.03;;
6288;SDS011;3177;49.880;8.836;2023-04-25T12:58:10;4.43;;;3.17;;
6288;SDS011;3177;49.880;8.836;2023-04-25T13:00:38;5.17;;;3.07;;
6288;SDS011;3177;49.880;8.836;2023-04-25T13:03:05;3.80;;;2.90;;
6288;SDS011;3177;49.880;8.836;2023-04-25T13:05:32;4.13;;;2.90;;
6288;SDS011;3177;49.880;8.836;2023-04-25T13:08:00;7.07;;;3.07;;
6288;SDS011;3177;49.880;8.836;2023-04-25T13:10:27;2.70;;;2.50;;
6288;SDS011;3177;49.880;8.836;2023-04-25T13:12:54;4.13;;;2.73;;
6288;SDS011;3177;49.880;8.836;2023-04-25T13:15:21;3.93;;;2.40;;
6288;SDS011;3177;49.880;8.836;2023-04-25T13:17:48;4.17;;;2.60;;
6288;SDS011;3177;49.880;8.836;2023-04-25T13:20:16;3.97;;;2.63;;
6288;SDS011;3177;49.880;8.836;2023-04-25T13:22:44;4.47;;;2.30;;
6288;SDS011;3177;49.880;8.836;2023-04-25T13:25:12;3.10;;;2.30;;
6288;SDS011;3177;49.880;8.836;2023-04-25T13:27:40;5.17;;;2.77;;
6288;SDS011;3177;49.880;8.836;2023-04-25T13:30:09;4.70;;;2.63;;
6288;SDS011;3177;49.880;8.836;2023-04-25T13:32:36;5.17;;;3.03;;
6288;SDS011;3177;49.880;8.836;2023-04-25T13:35:04;6.30;;;2.93;;
6288;SDS011;3177;49.880;8.836;2023-04-25T13:37:31;4.90;;;2.83;;
6288;SDS011;3177;49.880;8.836;2023-04-25T13:39:58;6.07;;;2.67;;
6288;SDS011;3177;49.880;8.836;2023-04-25T13:42:27;4.43;;;3.30;;
6288;SDS011;3177;49.880;8.836;2023-04-25T13:44:54;5.10;;;2.70;;
6288;SDS011;3177;49.880;8.836;2023-04-25T13:47:21;8.40;;;3.10;;
6288;SDS011;3177;49.880;8.836;2023-04-25T13:49:49;7.33;;;2.93;;
6288;SDS011;3177;49.880;8.836;2023-04-25T13:52:16;3.30;;;2.77;;
6288;SDS011;3177;49.880;8.836;2023-04-25T13:54:43;2.30;;;2.10;;
6288;SDS011;3177;49.880;8.836;2023-04-25T13:57:10;3.17;;;2.30;;
6288;SDS011;3177;49.880;8.836;2023-04-25T13:59:39;2.20;;;2.10;;
6288;SDS011;3177;49.880;8.836;2023-04-25T14:02:06;5.47;;;2.60;;
6288;SDS011;3177;49.880;8.836;2023-04-25T14:04:33;4.67;;;2.80;;
6288;SDS011;3177;49.880;8.836;2023-04-25T14:07:01;4.70;;;2.40;;
6288;SDS011;3177;49.880;8.836;2023-04-25T14:09:29;3.90;;;2.60;;
6288;SDS011;3177;49.880;8.836;2023-04-25T14:11:56;4.27;;;2.47;;
6288;SDS011;3177;49.880;8.836;2023-04-25T14:14:24;5.20;;;2.63;;
6288;SDS011;3177;49.880;8.836;2023-04-25T14:16:52;3.67;;;2.63;;
6288;SDS011;3177;49.880;8.836;2023-04-25T14:19:20;4.47;;;2.43;;
6288;SDS011;3177;49.880;8.836;2023-04-25T14:21:47;2.80;;;2.47;;
6288;SDS011;3177;49.880;8.836;2023-04-25T14:24:14;4.73;;;2.70;;
6288;SDS011;3177;49.880;8.836;2023-04-25T14:26:41;6.73;;;2.60;;
6288;SDS011;3177;49.880;8.836;2023-04-25T14:29:09;4.20;;;3.43;;
6288;SDS011;3177;49.880;8.836;2023-04-25T14:31:37;4.57;;;2.50;;
6288;SDS011;3177;49.880;8.836;2023-04-25T14:34:06;3.13;;;2.50;;
6288;SDS011;3177;49.880;8.836;2023-04-25T14:36:33;4.60;;;2.63;;
6288;SDS011;3177;49.880;8.836;2023-04-25T14:39:01;5.10;;;2.60;;
6288;SDS011;3177;49.880;8.836;2023-04-25T14:41:29;5.10;;;2.83;;
6288;SDS011;3177;49.880;8.836;2023-04-25T14:43:56;3.63;;;2.67;;
6288;SDS011;3177;49.880;8.836;2023-04-25T14:46:24;6.73;;;2.57;;
6288;SDS011;3177;49.880;8.836;2023-04-25T14:48:51;5.03;;;2.70;;
6288;SDS011;3177;49.880;8.836;2023-04-25T14:51:20;3.67;;;2.93;;
6288;SDS011;3177;49.880;8.836;2023-04-25T14:53:47;4.80;;;2.73;;
6288;SDS011;3177;49.880;8.836;2023-04-25T14:56:15;6.43;;;2.93;;
6288;SDS011;3177;49.880;8.836;2023-04-25T14:58:42;2.93;;;2.30;;
6288;SDS011;3177;49.880;8.836;2023-04-25T15:01:10;3.50;;;2.20;;
6288;SDS011;3177;49.880;8.836;2023-04-25T15:03:38;4.47;;;2.10;;
6288;SDS011;3177;49.880;8.836;2023-04-25T15:06:05;4.47;;;2.30;;
6288;SDS011;3177;49.880;8.836;2023-04-25T15:08:34;2.90;;;2.57;;
6288;SDS011;3177;49.880;8.836;2023-04-25T15:11:01;3.60;;;2.40;;
6288;SDS011;3177;49.880;8.836;2023-04-25T15:13:28;3.70;;;2.20;;
6288;SDS011;3177;49.880;8.836;2023-04-25T15:15:55;6.23;;;2.60;;
6288;SDS011;3177;49.880;8.836;2023-04-25T15:18:23;3.93;;;2.50;;